Hay River Airport
CYHY : now visible

Airfield :











YOU CAN JOIN US ON...

 
LOGIN :

Register | Disclaimer

   EN    FR    IT 

 









Legend :    VFR   Marginal VFR   IFR   Intensive IFR   Very Intensive IFR
Visi :
Ceiling :
>= 8 km
>= 3000ft
5 to 8 km
1000 to 3000 ft
1500m to 5 km
500 to 1000 ft
800 to 1500m
200 to 500 ft
< 800m
< 200 ft
Symbols :   Thunderstorms  Fog  Heavy snow  Heavy precipitations  Wind > 20 kt






- Airport Elevation : 543 ft
- IATA code : YHY


CYHY - Hay River

CURRENT METAR :
  • 230500Z 15010G16KT 15SM SCT150 05/M01 A2956 RMK AC4 SLP020

EXPIRED METARs :
  • 230400Z 15013KT 15SM FEW150 BKN230 06/M01 A2957 RMK AC2CI3 SLP023
  • 230300Z 15015KT 15SM FEW100 SCT180 05/M01 A2958 RMK AC2AC3 SLP026

TAF TAF CYHY
Valid from the 23 at 00:00 until the 23 at 12:00 UTC


222338Z 2300/2312 14014G24KT P6SM FEW140 SCT240
FM230400 16010KT P6SM BKN150 BKN240
FM231000 15008KT P6SM BKN100 BKN200 RMK NXT FCST BY 230600Z
CZEG FIR / North America



MET'MAP, your aeronautical weather chart ! - Copyright ORBIFLY December 2007 - Disclaimer

ORBIFLY MET'MAP TEAM :

Programming & Development : Alexandra Zaïnal
Concept & original design : Baudouin d'Aumeries
Assistance for programming : Marc-Olivier Méhu
Technical & hardware support : Manuel Goepfert

Contact : metmap@orbifly.com




SOURCES & CREDITS :

   NOAA       Earth
Advisory